Terminal Aerodrome Forecast
Issued by NWS

Home | Current Version | Previous Version | Text Only | Print | Product List | Glossary On
Versions: 1 2 3 4 5 6 7 8 9 10 11 12 13
000
FTUS45 KTFX 201100
TAFGTF
TAF
KGTF 201132Z 2012/2112 23014KT P6SM SCT090 BKN150
     FM202000 23018G23KT P6SM SCT080 BKN140
     FM210600 22022G30KT P6SM SCT070 BKN100=

USA.gov is the U.S. government's official web portal to all federal, state and local government web resources and services.